Time;durP1;ratioP1;P1;durP2;ratioP2;P2;SDS_P1;SDS_P2;PMS_P1;PMS_P2;Temp;Humidity;BMP_temperature;BMP_pressure;BME280_temperature;BME280_humidity;BME280_pressure;Samples;Min_cycle;Max_cycle;Signal;HPM_P1;HPM_P2
2024/02/19 00:07:39;;;;;;;28.63;13.90;;;;;;;-143.29;100.00;62188.47;5139530;23;20032;-95
2024/02/19 00:17:50;;;;;;;26.45;14.32;;;;;;;-143.29;100.00;62188.47;5634817;23;20063;-96
2024/02/19 00:20:16;;;;;;;38.22;16.23;;;;;;;-143.29;100.00;62188.47;4916864;29;20032;-96
2024/02/19 00:25:17;;;;;;;35.92;17.40;;;;;;;-143.29;100.00;62188.47;5181969;23;20421;-96
2024/02/19 00:30:19;;;;;;;30.02;16.05;;;;;;;-143.29;100.00;62188.47;5707572;23;20047;-96
2024/02/19 03:07:56;;;;;;;45.70;7.45;;;;;;;-143.29;100.00;62188.47;4958636;23;20092;-96
2024/02/19 03:10:21;;;;;;;31.17;4.93;;;;;;;-143.29;100.00;62188.47;4934234;29;20035;-96
2024/02/19 03:12:47;;;;;;;42.75;6.20;;;;;;;-143.29;100.00;62188.47;4935872;29;20036;-96
2024/02/19 03:15:13;;;;;;;36.53;5.55;;;;;;;-143.29;100.00;62188.47;4936225;29;20494;-96
2024/02/19 03:17:38;;;;;;;47.70;5.57;;;;;;;-143.29;100.00;62188.47;4935356;29;20068;-94
2024/02/19 03:20:11;;;;;;;47.00;4.95;;;;;;;-143.29;100.00;62188.47;4936959;29;20035;-95
2024/02/19 03:22:38;;;;;;;38.90;5.28;;;;;;;-143.29;100.00;62188.47;4936768;29;20028;-95
2024/02/19 03:27:40;;;;;;;64.00;6.88;;;;;;;-143.29;100.00;62188.47;5475607;23;20056;-95
2024/02/19 03:43:03;;;;;;;43.25;5.20;;;;;;;-143.29;100.00;62188.47;5532789;23;20055;-95
2024/02/19 03:45:29;;;;;;;64.40;6.00;;;;;;;-143.29;100.00;62188.47;4936530;29;20029;-95
2024/02/19 03:47:54;;;;;;;52.47;5.50;;;;;;;-143.29;100.00;62188.47;4935554;29;20550;-95
2024/02/19 03:50:21;;;;;;;52.75;5.75;;;;;;;-143.29;100.00;62188.47;4935586;29;20079;-95
2024/02/19 03:52:47;;;;;;;55.25;6.55;;;;;;;-143.29;100.00;62188.47;4933846;29;20059;-95
2024/02/19 04:00:23;;;;;;;41.50;5.45;;;;;;;-143.29;100.00;62188.47;5442483;23;20072;-96
2024/02/19 04:02:48;;;;;;;38.90;6.00;;;;;;;-143.29;100.00;62188.47;4940156;29;20047;-96
2024/02/19 04:05:14;;;;;;;45.85;5.80;;;;;;;-143.29;100.00;62188.47;4939602;29;20024;-96
2024/02/19 04:07:39;;;;;;;37.83;5.45;;;;;;;-143.29;100.00;62188.47;4939118;29;20032;-96
2024/02/19 04:10:05;;;;;;;36.05;4.43;;;;;;;-143.29;100.00;62188.47;4939445;29;20032;-96
2024/02/19 04:12:31;;;;;;;37.92;4.82;;;;;;;-143.29;100.00;62188.47;4939638;29;20028;-96
2024/02/19 04:15:03;;;;;;;39.25;4.53;;;;;;;-143.29;100.00;62188.47;4939406;29;20009;-96
2024/02/19 04:17:35;;;;;;;35.58;4.38;;;;;;;-143.29;100.00;62188.47;4922442;29;20067;-96
2024/02/19 04:20:17;;;;;;;26.27;3.83;;;;;;;-143.29;100.00;62188.47;4939413;29;20024;-96
2024/02/19 04:22:51;;;;;;;41.33;5.15;;;;;;;-143.29;100.00;62188.47;4953644;29;20012;-96
2024/02/19 04:25:17;;;;;;;45.03;4.40;;;;;;;-143.29;100.00;62188.47;4923697;29;20040;-96
2024/02/19 04:27:43;;;;;;;33.45;4.68;;;;;;;-143.29;100.00;62188.47;4938190;29;20060;-96
2024/02/19 04:30:18;;;;;;;52.22;8.25;;;;;;;-143.29;100.00;62188.47;4938828;29;20091;-95
2024/02/19 04:32:47;;;;;;;29.02;3.55;;;;;;;-143.29;100.00;62188.47;4938904;29;20020;-96
2024/02/19 04:35:13;;;;;;;32.00;4.07;;;;;;;-143.29;100.00;62188.47;4923707;29;20111;-96
2024/02/19 04:37:43;;;;;;;30.35;3.80;;;;;;;-143.29;100.00;62188.47;4938686;29;20032;-96
2024/02/19 04:40:12;;;;;;;30.30;7.05;;;;;;;-143.29;100.00;62188.47;4936441;29;20059;-96
2024/02/19 04:42:57;;;;;;;29.42;4.75;;;;;;;-143.29;100.00;62188.47;4939231;29;20040;-96
2024/02/19 04:45:48;;;;;;;29.90;4.80;;;;;;;-143.29;100.00;62188.47;4926082;29;20059;-95
2024/02/19 04:48:33;;;;;;;28.05;4.40;;;;;;;-143.29;100.00;62188.47;4946395;29;20068;-96
2024/02/19 04:51:22;;;;;;;26.20;3.63;;;;;;;-143.29;100.00;62188.47;4939579;29;20025;-96
2024/02/19 04:53:56;;;;;;;37.88;4.18;;;;;;;-143.29;100.00;62188.47;4939112;29;20051;-96
2024/02/19 04:56:23;;;;;;;26.75;3.78;;;;;;;-143.29;100.00;62188.47;4937091;29;20442;-96
2024/02/19 04:58:49;;;;;;;40.70;7.93;;;;;;;-143.29;100.00;62188.47;4937671;29;20040;-96
2024/02/19 05:01:19;;;;;;;24.35;4.28;;;;;;;-143.29;100.00;62188.47;4921842;29;20028;-96
2024/02/19 05:03:54;;;;;;;18.73;3.13;;;;;;;-143.29;100.00;62188.47;4939888;29;20024;-96
2024/02/19 05:06:24;;;;;;;19.83;3.65;;;;;;;-143.29;100.00;62188.47;4926384;29;20075;-96
2024/02/19 05:09:11;;;;;;;25.73;4.10;;;;;;;-143.29;100.00;62188.47;4927185;29;20047;-96
2024/02/19 05:11:46;;;;;;;23.52;3.40;;;;;;;-143.29;100.00;62188.47;4942713;29;20027;-96
2024/02/19 05:14:15;;;;;;;33.40;4.55;;;;;;;-143.29;100.00;62188.47;4941056;29;20043;-96
2024/02/19 05:16:57;;;;;;;22.85;3.67;;;;;;;-143.29;100.00;62188.47;4938399;29;20020;-96
2024/02/19 05:19:31;;;;;;;28.27;3.83;;;;;;;-143.29;100.00;62188.47;4942843;29;20056;-96
2024/02/19 05:21:59;;;;;;;24.55;3.75;;;;;;;-143.29;100.00;62188.47;4943256;29;20083;-96
2024/02/19 05:24:38;;;;;;;31.88;4.07;;;;;;;-143.29;100.00;62188.47;4943004;29;20047;-96
2024/02/19 05:27:13;;;;;;;22.95;3.80;;;;;;;-143.29;100.00;62188.47;4927836;29;20044;-96
2024/02/19 05:29:43;;;;;;;26.17;3.72;;;;;;;-143.29;100.00;62188.47;4942863;29;20079;-96
2024/02/19 05:32:10;;;;;;;25.15;3.03;;;;;;;-143.29;100.00;62188.47;4941513;29;20134;-96
2024/02/19 05:34:38;;;;;;;27.35;5.80;;;;;;;-143.29;100.00;62188.47;4943220;29;20036;-96
2024/02/19 05:37:09;;;;;;;31.50;4.78;;;;;;;-143.29;100.00;62188.47;4941767;29;20036;-96
2024/02/19 05:39:37;;;;;;;27.87;4.77;;;;;;;-143.29;100.00;62188.47;4956841;29;20040;-96
2024/02/19 05:42:17;;;;;;;31.05;4.32;;;;;;;-143.29;100.00;62188.47;4942516;29;20024;-95
2024/02/19 05:47:52;;;;;;;33.88;4.10;;;;;;;-143.29;100.00;62188.47;4998942;23;20043;-96
2024/02/19 05:50:18;;;;;;;32.55;3.80;;;;;;;-143.29;100.00;62188.47;4942788;29;20012;-96
2024/02/19 05:52:44;;;;;;;25.67;3.47;;;;;;;-143.29;100.00;62188.47;4942020;29;20059;-96
2024/02/19 05:55:09;;;;;;;37.78;6.50;;;;;;;-143.29;100.00;62188.47;4941636;29;20028;-96
2024/02/19 05:57:36;;;;;;;26.80;4.15;;;;;;;-143.29;100.00;62188.47;4942300;29;20008;-96
2024/02/19 06:00:05;;;;;;;38.00;4.97;;;;;;;-143.29;100.00;62188.47;4941670;29;20036;-96
2024/02/19 06:02:30;;;;;;;30.75;3.53;;;;;;;-143.29;100.00;62188.47;4942416;29;20039;-96
2024/02/19 06:04:56;;;;;;;40.55;5.10;;;;;;;-143.29;100.00;62188.47;4941769;29;20024;-96
2024/02/19 06:07:22;;;;;;;36.30;4.45;;;;;;;-143.29;100.00;62188.47;4941404;29;20064;-96
2024/02/19 06:09:47;;;;;;;41.28;4.15;;;;;;;-143.29;100.00;62188.47;4943173;29;20038;-96
2024/02/19 06:12:13;;;;;;;36.67;4.05;;;;;;;-143.29;100.00;62188.47;4941989;29;20096;-96
2024/02/19 06:14:39;;;;;;;39.55;4.60;;;;;;;-143.29;100.00;62188.47;4940738;29;20017;-96
2024/02/19 06:17:04;;;;;;;28.80;4.10;;;;;;;-143.29;100.00;62188.47;4941649;29;20034;-96
2024/02/19 06:19:30;;;;;;;27.65;3.95;;;;;;;-143.29;100.00;62188.47;4941135;29;20016;-96
2024/02/19 06:21:55;;;;;;;37.53;4.80;;;;;;;-143.29;100.00;62188.47;4942394;29;20020;-96
2024/02/19 06:24:46;;;;;;;19.63;3.65;;;;;;;-143.29;100.00;62188.47;4942283;29;20038;-96
2024/02/19 06:27:41;;;;;;;41.50;6.22;;;;;;;-143.29;100.00;62188.47;4941718;29;20032;-96
2024/02/19 06:30:30;;;;;;;45.10;4.72;;;;;;;-143.29;100.00;62188.47;4941260;29;20032;-96
2024/02/19 06:33:04;;;;;;;34.28;4.05;;;;;;;-143.29;100.00;62188.47;4942896;29;20036;-96
2024/02/19 06:35:42;;;;;;;26.15;4.07;;;;;;;-143.29;100.00;62188.47;4941237;29;20028;-96
2024/02/19 06:41:07;;;;;;;28.92;4.43;;;;;;;-143.29;100.00;62188.47;5813773;23;20056;-96
2024/02/19 06:43:42;;;;;;;28.67;4.60;;;;;;;-143.29;100.00;62188.47;4925101;29;20047;-96
2024/02/19 06:46:13;;;;;;;41.03;5.90;;;;;;;-143.29;100.00;62188.47;4937585;29;20048;-96
2024/02/19 06:48:44;;;;;;;33.17;5.45;;;;;;;-143.29;100.00;62188.47;4939345;29;20047;-96
2024/02/19 06:51:11;;;;;;;32.35;5.07;;;;;;;-143.29;100.00;62188.47;4940161;29;20008;-96
2024/02/19 06:53:38;;;;;;;34.42;4.65;;;;;;;-143.29;100.00;62188.47;4940338;29;20020;-96
2024/02/19 06:56:08;;;;;;;34.38;4.55;;;;;;;-143.29;100.00;62188.47;4939497;29;20111;-96
2024/02/19 06:58:38;;;;;;;49.67;6.03;;;;;;;-143.29;100.00;62188.47;4940055;29;20020;-95
2024/02/19 07:01:16;;;;;;;26.70;3.90;;;;;;;-143.29;100.00;62188.47;4938320;29;20055;-96
2024/02/19 07:03:45;;;;;;;36.95;6.90;;;;;;;-143.29;100.00;62188.47;4938460;29;20038;-96
2024/02/19 07:06:11;;;;;;;30.42;4.63;;;;;;;-143.29;100.00;62188.47;4939736;29;20073;-96
2024/02/19 07:08:59;;;;;;;33.90;4.72;;;;;;;-143.29;100.00;62188.47;4940250;29;20039;-96
2024/02/19 07:11:29;;;;;;;23.63;3.30;;;;;;;-143.29;100.00;62188.47;4938806;29;20028;-95
2024/02/19 07:13:55;;;;;;;29.02;3.63;;;;;;;-143.29;100.00;62188.47;4939481;29;20024;-95
2024/02/19 07:16:27;;;;;;;28.63;4.40;;;;;;;-143.29;100.00;62188.47;4939733;29;20016;-96
2024/02/19 07:18:54;;;;;;;27.98;3.17;;;;;;;-143.29;100.00;62188.47;4939483;29;20186;-96
2024/02/19 07:21:21;;;;;;;23.33;3.53;;;;;;;-143.29;100.00;62188.47;4923393;29;20024;-96
2024/02/19 07:23:56;;;;;;;22.63;3.13;;;;;;;-143.29;100.00;62188.47;4956261;29;20060;-96
2024/02/19 07:26:26;;;;;;;21.98;2.92;;;;;;;-143.29;100.00;62188.47;4939192;29;20040;-96
2024/02/19 07:29:18;;;;;;;19.90;2.45;;;;;;;-143.29;100.00;62188.47;4940235;29;20061;-96
2024/02/19 07:31:51;;;;;;;14.05;2.00;;;;;;;-143.29;100.00;62188.47;4928203;29;20032;-96
2024/02/19 07:34:29;;;;;;;15.45;2.03;;;;;;;-143.29;100.00;62188.47;4924019;29;20043;-96
2024/02/19 07:36:58;;;;;;;12.43;1.58;;;;;;;-143.29;100.00;62188.47;4940223;29;20072;-96
2024/02/19 07:39:26;;;;;;;15.07;2.40;;;;;;;-143.29;100.00;62188.47;4938642;29;20084;-96
2024/02/19 07:41:53;;;;;;;17.15;3.00;;;;;;;-143.29;100.00;62188.47;4939604;29;20031;-96
2024/02/19 07:44:22;;;;;;;15.45;2.42;;;;;;;-143.29;100.00;62188.47;4939078;29;20024;-96
2024/02/19 07:46:51;;;;;;;8.00;2.03;;;;;;;-143.29;100.00;62188.47;4938209;29;20059;-96
2024/02/19 07:49:27;;;;;;;15.18;1.95;;;;;;;-143.29;100.00;62188.47;4938678;29;20040;-96
2024/02/19 07:51:55;;;;;;;13.10;2.13;;;;;;;-143.29;100.00;62188.47;4923117;29;20049;-95
2024/02/19 07:54:33;;;;;;;10.75;2.05;;;;;;;-143.29;100.00;62188.47;4939162;29;20036;-96
2024/02/19 07:57:01;;;;;;;11.63;1.70;;;;;;;-143.29;100.00;62188.47;4937998;29;20042;-96
2024/02/19 07:59:29;;;;;;;13.25;1.75;;;;;;;-143.29;100.00;62188.47;4937989;29;20047;-96
2024/02/19 08:02:01;;;;;;;5.55;0.93;;;;;;;-143.29;100.00;62188.47;4936558;29;20032;-96
2024/02/19 08:04:28;;;;;;;9.40;1.35;;;;;;;-143.29;100.00;62188.47;4936930;29;20024;-96
2024/02/19 08:06:53;;;;;;;3.90;0.93;;;;;;;-143.29;100.00;62188.47;4920805;29;20136;-96
2024/02/19 08:09:21;;;;;;;4.75;0.90;;;;;;;-143.29;100.00;62188.47;4936683;29;20028;-96
2024/02/19 08:11:47;;;;;;;8.35;0.90;;;;;;;-143.29;100.00;62188.47;4921133;29;20039;-96
2024/02/19 08:14:13;;;;;;;7.78;1.17;;;;;;;-143.29;100.00;62188.47;4936649;29;20012;-96
2024/02/19 08:16:40;;;;;;;3.35;0.77;;;;;;;-143.29;100.00;62188.47;4935548;29;20071;-96
2024/02/19 08:19:07;;;;;;;2.67;1.00;;;;;;;-143.29;100.00;62188.47;4936718;29;20028;-96
2024/02/19 08:21:33;;;;;;;2.63;1.95;;;;;;;-143.29;100.00;62188.47;4935102;29;20028;-96
2024/02/19 08:23:59;;;;;;;2.63;0.60;;;;;;;-143.29;100.00;62188.47;4934268;29;20043;-96
2024/02/19 08:26:28;;;;;;;4.95;0.40;;;;;;;-143.29;100.00;62188.47;4935488;29;20028;-96
2024/02/19 08:28:54;;;;;;;3.20;0.57;;;;;;;-143.29;100.00;62188.47;4935143;29;20051;-96
2024/02/19 08:31:27;;;;;;;2.03;0.40;;;;;;;-143.29;100.00;62188.47;4920262;29;20055;-96
2024/02/19 08:33:56;;;;;;;3.70;0.55;;;;;;;-143.29;100.00;62188.47;4921788;29;20076;-95
2024/02/19 08:36:23;;;;;;;1.80;0.60;;;;;;;-143.29;100.00;62188.47;4936452;29;20387;-96
2024/02/19 08:38:55;;;;;;;1.02;0.30;;;;;;;-143.29;100.00;62188.47;4936680;29;20056;-96
2024/02/19 08:41:37;;;;;;;3.08;0.52;;;;;;;-143.29;100.00;62188.47;4937916;29;20012;-96
2024/02/19 08:44:04;;;;;;;4.38;0.60;;;;;;;-143.29;100.00;62188.47;4934609;29;20058;-96
2024/02/19 08:46:30;;;;;;;2.38;0.50;;;;;;;-143.29;100.00;62188.47;4934967;29;20028;-95
2024/02/19 08:48:56;;;;;;;2.65;0.35;;;;;;;-143.29;100.00;62188.47;4933991;29;20011;-96
2024/02/19 08:51:23;;;;;;;3.60;0.63;;;;;;;-143.29;100.00;62188.47;4934036;29;20035;-96
2024/02/19 08:53:51;;;;;;;4.30;0.60;;;;;;;-143.29;100.00;62188.47;4918005;29;20052;-96
2024/02/19 08:56:17;;;;;;;3.70;1.00;;;;;;;-143.29;100.00;62188.47;4932663;29;20028;-95
2024/02/19 08:58:45;;;;;;;3.10;0.75;;;;;;;-143.29;100.00;62188.47;4933827;29;20052;-96
2024/02/19 09:01:16;;;;;;;4.03;0.40;;;;;;;-143.29;100.00;62188.47;4932824;29;20380;-96
2024/02/19 09:03:44;;;;;;;9.52;0.60;;;;;;;-143.29;100.00;62188.47;4933475;29;20021;-96
2024/02/19 09:06:11;;;;;;;4.32;0.70;;;;;;;-143.29;100.00;62188.47;4933068;29;20035;-96
2024/02/19 09:08:37;;;;;;;4.32;0.45;;;;;;;-143.29;100.00;62188.47;4916783;29;20039;-95
2024/02/19 09:11:04;;;;;;;2.50;0.88;;;;;;;-143.29;100.00;62188.47;4932923;29;20032;-96
2024/02/19 09:13:34;;;;;;;4.88;1.00;;;;;;;-143.29;100.00;62188.47;4916723;29;20091;-96
2024/02/19 09:16:02;;;;;;;4.72;1.48;;;;;;;-143.29;100.00;62188.47;4932194;29;20024;-96
2024/02/19 09:18:28;;;;;;;5.97;1.25;;;;;;;-143.29;100.00;62188.47;4932355;29;20036;-96
2024/02/19 09:20:54;;;;;;;5.90;1.05;;;;;;;-143.29;100.00;62188.47;4932538;29;20084;-96
2024/02/19 09:23:20;;;;;;;3.92;1.10;;;;;;;-143.29;100.00;62188.47;4932260;29;20044;-96
2024/02/19 09:25:46;;;;;;;8.32;1.42;;;;;;;-143.29;100.00;62188.47;4933243;29;20020;-95
2024/02/19 09:28:15;;;;;;;9.35;1.85;;;;;;;-143.29;100.00;62188.47;4932450;29;20032;-96
2024/02/19 09:30:41;;;;;;;4.95;2.03;;;;;;;-143.29;100.00;62188.47;4932390;29;20036;-96
2024/02/19 09:33:07;;;;;;;11.57;2.40;;;;;;;-143.29;100.00;62188.47;4930368;29;20056;-96
2024/02/19 09:35:32;;;;;;;4.32;2.22;;;;;;;-143.29;100.00;62188.47;4916370;29;20092;-96
2024/02/19 09:37:58;;;;;;;5.32;2.00;;;;;;;-143.29;100.00;62188.47;4931409;29;20070;-96
2024/02/19 09:40:26;;;;;;;8.13;2.10;;;;;;;-143.29;100.00;62188.47;4932117;29;20035;-95
2024/02/19 09:42:52;;;;;;;10.98;2.65;;;;;;;-143.29;100.00;62188.47;4932507;29;20508;-95
2024/02/19 09:45:19;;;;;;;9.15;2.30;;;;;;;-143.29;100.00;62188.47;4915433;29;20261;-95
2024/02/19 09:47:45;;;;;;;8.20;2.08;;;;;;;-143.29;100.00;62188.47;4931923;29;20101;-96
2024/02/19 09:50:13;;;;;;;9.40;2.35;;;;;;;-143.29;100.00;62188.47;4932675;29;20016;-96
2024/02/19 09:52:42;;;;;;;8.52;2.33;;;;;;;-143.29;100.00;62188.47;4933731;29;20040;-96
2024/02/19 09:55:08;;;;;;;7.75;2.80;;;;;;;-143.29;100.00;62188.47;4933385;29;20027;-95
2024/02/19 09:57:34;;;;;;;10.45;2.55;;;;;;;-143.29;100.00;62188.47;4932345;29;20048;-96
2024/02/19 10:00:04;;;;;;;9.38;2.67;;;;;;;-143.29;100.00;62188.47;4933859;29;20064;-96
2024/02/19 10:02:30;;;;;;;17.73;5.63;;;;;;;-143.29;100.00;62188.47;4934004;29;20091;-95
2024/02/19 10:04:55;;;;;;;19.08;4.65;;;;;;;-143.29;100.00;62188.47;4933751;29;20032;-96
2024/02/19 10:07:21;;;;;;;7.28;3.60;;;;;;;-143.29;100.00;62188.47;4934082;29;20043;-96
2024/02/19 10:09:47;;;;;;;15.13;5.20;;;;;;;-143.29;100.00;62188.47;4918532;29;20044;-96
2024/02/19 10:12:14;;;;;;;12.95;3.75;;;;;;;-143.29;100.00;62188.47;4934968;29;20028;-96
2024/02/19 10:14:40;;;;;;;9.52;2.50;;;;;;;-143.29;100.00;62188.47;4932071;29;20075;-96
2024/02/19 10:17:06;;;;;;;10.05;2.35;;;;;;;-143.29;100.00;62188.47;4931956;29;20032;-96
2024/02/19 10:19:32;;;;;;;5.82;2.08;;;;;;;-143.29;100.00;62188.47;4930905;29;20035;-96
2024/02/19 10:21:58;;;;;;;9.57;2.22;;;;;;;-143.29;100.00;62188.47;4932449;29;20034;-96
2024/02/19 10:24:26;;;;;;;14.57;2.30;;;;;;;-143.29;100.00;62188.47;4932417;29;20502;-96
2024/02/19 10:26:52;;;;;;;8.02;2.38;;;;;;;-143.29;100.00;62188.47;4933082;29;20028;-96
2024/02/19 10:29:18;;;;;;;10.82;2.80;;;;;;;-143.29;100.00;62188.47;4931431;29;20055;-96
2024/02/19 10:31:44;;;;;;;9.88;2.83;;;;;;;-143.29;100.00;62188.47;4932398;29;20122;-96
2024/02/19 10:34:14;;;;;;;11.15;3.28;;;;;;;-143.29;100.00;62188.47;4931855;29;20083;-95
2024/02/19 10:36:40;;;;;;;9.80;3.03;;;;;;;-143.29;100.00;62188.47;4932899;29;20031;-95
2024/02/19 10:39:06;;;;;;;11.27;3.25;;;;;;;-143.29;100.00;62188.47;4932839;29;20020;-96
2024/02/19 10:41:36;;;;;;;8.57;2.50;;;;;;;-143.29;100.00;62188.47;4932796;29;20033;-96
2024/02/19 10:44:03;;;;;;;17.60;3.40;;;;;;;-143.29;100.00;62188.47;4932000;29;20068;-96
2024/02/19 10:46:30;;;;;;;7.80;2.00;;;;;;;-143.29;100.00;62188.47;4932467;29;20028;-96
2024/02/19 10:48:57;;;;;;;14.10;2.83;;;;;;;-143.29;100.00;62188.47;4932543;29;20040;-96
2024/02/19 10:51:24;;;;;;;12.13;3.15;;;;;;;-143.29;100.00;62188.47;4931595;29;20068;-96
2024/02/19 10:54:20;;;;;;;8.65;2.45;;;;;;;-143.29;100.00;62188.47;4930745;29;20028;-96
2024/02/19 10:56:45;;;;;;;14.05;2.53;;;;;;;-143.29;100.00;62188.47;4919910;29;20037;-96
2024/02/19 10:59:12;;;;;;;12.45;3.38;;;;;;;-143.29;100.00;62188.47;4929952;29;20032;-96
2024/02/19 11:01:46;;;;;;;11.85;3.15;;;;;;;-143.29;100.00;62188.47;4931326;29;20028;-96
2024/02/19 11:04:18;;;;;;;12.30;2.85;;;;;;;-143.29;100.00;62188.47;4931413;29;20091;-96
2024/02/19 11:06:54;;;;;;;11.30;3.00;;;;;;;-143.29;100.00;62188.47;4931990;29;20544;-96
2024/02/19 11:09:21;;;;;;;11.35;3.00;;;;;;;-143.29;100.00;62188.47;4930852;29;20095;-96
2024/02/19 11:11:52;;;;;;;11.40;3.13;;;;;;;-143.29;100.00;62188.47;4930329;29;20032;-95
2024/02/19 11:14:22;;;;;;;12.48;2.95;;;;;;;-143.29;100.00;62188.47;4931395;29;20024;-96
2024/02/19 11:16:49;;;;;;;13.00;2.95;;;;;;;-143.29;100.00;62188.47;4931035;29;20029;-96
2024/02/19 11:19:15;;;;;;;17.83;3.58;;;;;;;-143.29;100.00;62188.47;4930995;29;20036;-96
2024/02/19 11:21:43;;;;;;;11.82;2.83;;;;;;;-143.29;100.00;62188.47;4931926;29;20077;-96
2024/02/19 11:24:09;;;;;;;17.30;2.55;;;;;;;-143.29;100.00;62188.47;4931486;29;20028;-96
2024/02/19 11:26:40;;;;;;;19.77;4.88;;;;;;;-143.29;100.00;62188.47;4931721;29;20091;-96
2024/02/19 11:29:07;;;;;;;13.95;2.45;;;;;;;-143.29;100.00;62188.47;4928953;29;20063;-96
2024/02/19 11:31:33;;;;;;;13.85;2.83;;;;;;;-143.29;100.00;62188.47;4930594;29;20032;-96
2024/02/19 11:33:59;;;;;;;12.35;3.00;;;;;;;-143.29;100.00;62188.47;4935665;29;20020;-96
2024/02/19 11:36:26;;;;;;;15.75;2.85;;;;;;;-143.29;100.00;62188.47;4932244;29;20039;-96
2024/02/19 11:38:51;;;;;;;13.60;3.47;;;;;;;-143.29;100.00;62188.47;4928125;29;20466;-96
2024/02/19 11:41:18;;;;;;;15.13;2.72;;;;;;;-143.29;100.00;62188.47;4929375;29;20036;-96
2024/02/19 11:43:44;;;;;;;14.90;2.75;;;;;;;-143.29;100.00;62188.47;4929041;29;20039;-96
2024/02/19 11:46:11;;;;;;;19.10;3.35;;;;;;;-143.29;100.00;62188.47;4928633;29;20068;-95
2024/02/19 11:48:39;;;;;;;12.27;2.83;;;;;;;-143.29;100.00;62188.47;4928484;29;20036;-96
2024/02/19 11:51:06;;;;;;;15.80;2.80;;;;;;;-143.29;100.00;62188.47;4930534;29;20032;-96
2024/02/19 11:53:32;;;;;;;12.75;2.80;;;;;;;-143.29;100.00;62188.47;4932096;29;20030;-96
2024/02/19 11:56:03;;;;;;;13.93;2.72;;;;;;;-143.29;100.00;62188.47;4933022;29;20035;-96
2024/02/19 11:58:32;;;;;;;17.88;3.15;;;;;;;-143.29;100.00;62188.47;4933547;29;20091;-96
2024/02/19 12:01:01;;;;;;;16.80;2.92;;;;;;;-143.29;100.00;62188.47;4919155;29;20043;-96
2024/02/19 12:03:28;;;;;;;21.33;3.30;;;;;;;-143.29;100.00;62188.47;4919274;29;20028;-96
2024/02/19 12:05:57;;;;;;;17.85;3.35;;;;;;;-143.29;100.00;62188.47;4932438;29;20058;-96
2024/02/19 12:08:23;;;;;;;17.00;2.88;;;;;;;-143.29;100.00;62188.47;4931360;29;20028;-96
2024/02/19 12:10:49;;;;;;;14.07;3.20;;;;;;;-143.29;100.00;62188.47;4932285;29;20123;-96
2024/02/19 12:13:20;;;;;;;19.70;3.05;;;;;;;-143.29;100.00;62188.47;4933233;29;20039;-96
2024/02/19 12:15:53;;;;;;;14.55;2.80;;;;;;;-143.29;100.00;62188.47;4934788;29;20123;-96
2024/02/19 12:18:20;;;;;;;14.80;3.28;;;;;;;-143.29;100.00;62188.47;4932068;29;20047;-96
2024/02/19 12:20:46;;;;;;;19.88;3.78;;;;;;;-143.29;100.00;62188.47;4935087;29;20020;-96
2024/02/19 12:23:14;;;;;;;14.15;3.55;;;;;;;-143.29;100.00;62188.47;4936826;29;20016;-96
2024/02/19 12:25:40;;;;;;;19.50;4.30;;;;;;;-143.29;100.00;62188.47;4920570;29;20016;-96
2024/02/19 12:28:14;;;;;;;13.73;3.92;;;;;;;-143.29;100.00;62188.47;4936018;29;20055;-95
2024/02/19 12:30:39;;;;;;;14.35;2.95;;;;;;;-143.29;100.00;62188.47;4935807;29;20028;-96
2024/02/19 12:33:07;;;;;;;15.50;2.85;;;;;;;-143.29;100.00;62188.47;4936135;29;20364;-96
2024/02/19 12:35:33;;;;;;;15.38;3.50;;;;;;;-143.29;100.00;62188.47;4921542;29;20498;-96
2024/02/19 12:38:01;;;;;;;22.90;3.10;;;;;;;-143.29;100.00;62188.47;4937509;29;20052;-96
2024/02/19 12:40:30;;;;;;;15.68;2.78;;;;;;;-143.29;100.00;62188.47;4921858;29;20032;-96
2024/02/19 12:42:56;;;;;;;25.25;4.25;;;;;;;-143.29;100.00;62188.47;4922324;29;20034;-96
2024/02/19 12:45:22;;;;;;;17.02;2.95;;;;;;;-143.29;100.00;62188.47;4937665;29;20032;-96
2024/02/19 12:47:56;;;;;;;12.32;2.70;;;;;;;-143.29;100.00;62188.47;4923295;29;20020;-96
2024/02/19 12:50:35;;;;;;;27.95;4.30;;;;;;;-143.29;100.00;62188.47;4924601;29;20043;-95
2024/02/19 12:53:16;;;;;;;17.85;3.35;;;;;;;-143.29;100.00;62188.47;4939035;29;20036;-96
2024/02/19 12:55:44;;;;;;;;;;;;;;;-143.29;100.00;62188.47;4940897;29;20020;-96
2024/02/19 12:58:11;;;;;;;13.20;2.45;;;;;;;-143.29;100.00;62188.47;4923397;29;19903;-96
2024/02/19 13:00:42;;;;;;;14.65;3.30;;;;;;;-143.29;100.00;62188.47;4939459;29;20024;-96
2024/02/19 13:03:16;;;;;;;15.95;3.20;;;;;;;-143.29;100.00;62188.47;4939254;29;20063;-96
2024/02/19 13:05:47;;;;;;;13.80;2.67;;;;;;;-143.29;100.00;62188.47;4923412;29;20028;-96
2024/02/19 13:08:15;;;;;;;16.67;3.45;;;;;;;-143.29;100.00;62188.47;4935173;29;20032;-96
2024/02/19 13:10:43;;;;;;;22.67;3.88;;;;;;;-143.29;100.00;62188.47;4922821;29;20044;-96
2024/02/19 13:13:19;;;;;;;16.40;2.95;;;;;;;-143.29;100.00;62188.47;4921534;29;20032;-96
2024/02/19 13:15:47;;;;;;;18.33;3.92;;;;;;;-143.29;100.00;62188.47;4937769;29;20044;-96
2024/02/19 13:18:14;;;;;;;20.20;3.65;;;;;;;-143.29;100.00;62188.47;4936299;29;20029;-96
2024/02/19 13:20:42;;;;;;;16.13;3.00;;;;;;;-143.29;100.00;62188.47;4936519;29;20077;-96
2024/02/19 13:23:10;;;;;;;19.50;3.45;;;;;;;-143.29;100.00;62188.47;4936676;29;20032;-96
2024/02/19 13:25:36;;;;;;;12.65;2.42;;;;;;;-143.29;100.00;62188.47;4938900;29;20032;-96
2024/02/19 13:28:06;;;;;;;17.88;3.60;;;;;;;-143.29;100.00;62188.47;4942016;29;20016;-96
2024/02/19 13:30:56;;;;;;;15.45;2.85;;;;;;;-143.29;100.00;62188.47;4941395;29;20129;-96
2024/02/19 13:33:24;;;;;;;15.32;3.15;;;;;;;-143.29;100.00;62188.47;4938862;29;20032;-96
2024/02/19 13:36:00;;;;;;;14.60;2.38;;;;;;;-143.29;100.00;62188.47;4943306;29;20028;-96
2024/02/19 13:38:33;;;;;;;14.70;3.08;;;;;;;-143.29;100.00;62188.47;4943072;29;20023;-96
2024/02/19 13:41:10;;;;;;;18.13;2.90;;;;;;;-143.29;100.00;62188.47;4943405;29;20039;-96
2024/02/19 13:43:58;;;;;;;16.08;3.10;;;;;;;-143.29;100.00;62188.47;4943640;29;20064;-96
2024/02/19 13:54:41;;;;;;;16.80;3.00;;;;;;;-143.29;100.00;62188.47;5166091;23;20063;-96
2024/02/19 13:57:07;;;;;;;16.20;3.40;;;;;;;-143.29;100.00;62188.47;4933744;29;20028;-95
2024/02/19 13:59:33;;;;;;;17.15;3.10;;;;;;;-143.29;100.00;62188.47;4936993;29;20529;-96
2024/02/19 14:01:59;;;;;;;28.27;4.07;;;;;;;-143.29;100.00;62188.47;4936180;29;20096;-95
2024/02/19 14:04:24;;;;;;;10.50;2.72;;;;;;;-143.29;100.00;62188.47;4937224;29;20087;-95
2024/02/19 14:06:50;;;;;;;14.13;3.15;;;;;;;-143.29;100.00;62188.47;4938052;29;20028;-96
2024/02/19 14:09:18;;;;;;;15.20;2.75;;;;;;;-143.29;100.00;62188.47;4938052;29;20066;-96
2024/02/19 14:11:44;;;;;;;14.68;2.40;;;;;;;-143.29;100.00;62188.47;5211407;23;20049;-95
2024/02/19 14:14:10;;;;;;;13.25;2.80;;;;;;;-143.29;100.00;62188.47;4938162;29;20048;-96
2024/02/19 14:16:36;;;;;;;19.17;3.38;;;;;;;-143.29;100.00;62188.47;4939754;29;20108;-96
2024/02/19 14:19:03;;;;;;;15.40;2.20;;;;;;;-143.29;100.00;62188.47;4939610;29;20040;-95
2024/02/19 14:21:29;;;;;;;12.90;2.88;;;;;;;-143.29;100.00;62188.47;4940085;29;20032;-95
2024/02/19 14:23:55;;;;;;;19.60;4.18;;;;;;;-143.29;100.00;62188.47;4941297;29;20024;-96
2024/02/19 14:26:23;;;;;;;19.52;3.03;;;;;;;-143.29;100.00;62188.47;4941815;29;20008;-95
2024/02/19 14:28:49;;;;;;;19.33;2.92;;;;;;;-143.29;100.00;62188.47;4942954;29;20012;-96
2024/02/19 14:31:18;;;;;;;15.30;3.45;;;;;;;-143.29;100.00;62188.47;4942006;29;20036;-96
2024/02/19 14:33:44;;;;;;;16.38;3.17;;;;;;;-143.29;100.00;62188.47;4942613;29;20036;-96
2024/02/19 14:36:10;;;;;;;15.68;2.72;;;;;;;-143.29;100.00;62188.47;4941229;29;20058;-96
2024/02/19 14:38:51;;;;;;;19.13;3.30;;;;;;;-143.29;100.00;62188.47;4941654;29;20040;-96
2024/02/19 14:41:21;;;;;;;23.17;3.63;;;;;;;-143.29;100.00;62188.47;4941261;29;20024;-96
2024/02/19 14:43:47;;;;;;;16.95;3.80;;;;;;;-143.29;100.00;62188.47;4941651;29;20040;-96